BEE123 EGJB-EGKK
Flight info
| Callsign | BEE123 |
|---|---|
| Flight time | N/A |
| Altitude | 19000 |
| Route | ORIST1F ORIST L982 VASUX VASUX1G |
| Aircraft | DH8D/L-V/N |
Departure
| Time | 2026-04-23 17:59 |
|---|---|
| Airport | Guernsey Airport (EGJB) |
Arrival
| Time | N/A |
|---|---|
| Airport | London Gatwick Airport (EGKK) |
| Time | Latitude | Longitude | Altitude | Speed | Heading |
|---|---|---|---|---|---|
| 2026-04-23 17:46 | 49.43263 | -2.59649 | 338 ft | 0 kts | 178° |
| 2026-04-23 17:49 | 49.43266 | -2.59649 | 338 ft | 2 kts | 179° |
| 2026-04-23 17:49 | 49.43281 | -2.59650 | 338 ft | 2 kts | 178° |
| 2026-04-23 17:50 | 49.43296 | -2.59650 | 338 ft | 2 kts | 178° |
| 2026-04-23 17:50 | 49.43325 | -2.59651 | 338 ft | 1 kts | 178° |
| 2026-04-23 17:50 | 49.43335 | -2.59652 | 338 ft | 2 kts | 175° |
| 2026-04-23 17:51 | 49.43350 | -2.59655 | 338 ft | 2 kts | 168° |
| 2026-04-23 17:51 | 49.43362 | -2.59659 | 338 ft | 0 kts | 164° |
| 2026-04-23 17:53 | 49.43358 | -2.59658 | 338 ft | 4 kts | 166° |
| 2026-04-23 17:54 | 49.43344 | -2.59726 | 336 ft | 16 kts | 267° |
| 2026-04-23 17:54 | 49.43339 | -2.59963 | 329 ft | 22 kts | 268° |
| 2026-04-23 17:54 | 49.43330 | -2.60353 | 315 ft | 18 kts | 266° |
| 2026-04-23 17:55 | 49.43361 | -2.60923 | 302 ft | 22 kts | 267° |
| 2026-04-23 17:55 | 49.43359 | -2.61056 | 302 ft | 0 kts | 268° |
| 2026-04-23 17:57 | 49.43402 | -2.61158 | 302 ft | 11 kts | 320° |
| 2026-04-23 17:58 | 49.43460 | -2.61164 | 302 ft | 5 kts | 65° |
| 2026-04-23 17:58 | 49.43464 | -2.61110 | 302 ft | 12 kts | 86° |
| 2026-04-23 17:58 | 49.43483 | -2.60542 | 308 ft | 98 kts | 87° |
| 2026-04-23 17:58 | 49.43524 | -2.59174 | 475 ft | 146 kts | 86° |
| 2026-04-23 17:59 | 49.43589 | -2.57569 | 1131 ft | 161 kts | 84° |
| 2026-04-23 17:59 | 49.43642 | -2.55861 | 2067 ft | 165 kts | 84° |
| 2026-04-23 17:59 | 49.43677 | -2.54116 | 2928 ft | 166 kts | 84° |
| 2026-04-23 17:59 | 49.43689 | -2.52318 | 3577 ft | 180 kts | 84° |
| 2026-04-23 18:00 | 49.43692 | -2.50357 | 4279 ft | 188 kts | 84° |
| 2026-04-23 18:00 | 49.43735 | -2.48143 | 4117 ft | 240 kts | 78° |
| 2026-04-23 18:00 | 49.44535 | -2.45949 | 3979 ft | 235 kts | 41° |
| 2026-04-23 18:00 | 49.46018 | -2.45046 | 3932 ft | 232 kts | 5° |
| 2026-04-23 18:01 | 49.47623 | -2.45134 | 3914 ft | 229 kts | 359° |
| 2026-04-23 18:01 | 49.49180 | -2.45154 | 3896 ft | 217 kts | 2° |
| 2026-04-23 18:01 | 49.50675 | -2.45058 | 4048 ft | 220 kts | 5° |
| 2026-04-23 18:01 | 49.52198 | -2.44837 | 4681 ft | 217 kts | 6° |
| 2026-04-23 18:02 | 49.53679 | -2.44530 | 5350 ft | 218 kts | 7° |
| 2026-04-23 18:02 | 49.55168 | -2.44154 | 6008 ft | 220 kts | 8° |
| 2026-04-23 18:02 | 49.56676 | -2.43721 | 6684 ft | 222 kts | 8° |
| 2026-04-23 18:02 | 49.58192 | -2.43248 | 7325 ft | 226 kts | 7° |
| 2026-04-23 18:03 | 49.59747 | -2.42734 | 7885 ft | 233 kts | 7° |
| 2026-04-23 18:03 | 49.61326 | -2.42196 | 8560 ft | 232 kts | 7° |
| 2026-04-23 18:03 | 49.62938 | -2.41630 | 9079 ft | 240 kts | 6° |
| 2026-04-23 18:03 | 49.64579 | -2.41037 | 9625 ft | 246 kts | 6° |
| 2026-04-23 18:04 | 49.66245 | -2.40426 | 10178 ft | 252 kts | 6° |
| 2026-04-23 18:04 | 49.67956 | -2.39790 | 10716 ft | 258 kts | 6° |
| 2026-04-23 18:04 | 49.69712 | -2.39058 | 11229 ft | 269 kts | 13° |
| 2026-04-23 18:04 | 49.71270 | -2.37302 | 11747 ft | 288 kts | 43° |
| 2026-04-23 18:05 | 49.72577 | -2.34919 | 12280 ft | 295 kts | 46° |
| 2026-04-23 18:05 | 49.73909 | -2.32458 | 12881 ft | 299 kts | 46° |
| 2026-04-23 18:05 | 49.75243 | -2.29990 | 13451 ft | 303 kts | 46° |
| 2026-04-23 18:05 | 49.76606 | -2.27478 | 13999 ft | 307 kts | 45° |
| 2026-04-23 18:06 | 49.77977 | -2.24958 | 14526 ft | 310 kts | 45° |
| 2026-04-23 18:06 | 49.79380 | -2.22381 | 15046 ft | 314 kts | 45° |
| 2026-04-23 18:06 | 49.80798 | -2.19782 | 15544 ft | 318 kts | 45° |
| 2026-04-23 18:06 | 49.82246 | -2.17129 | 16036 ft | 322 kts | 45° |
| 2026-04-23 18:07 | 49.83680 | -2.14498 | 16503 ft | 325 kts | 45° |
| 2026-04-23 18:07 | 49.85145 | -2.11813 | 16959 ft | 329 kts | 44° |
| 2026-04-23 18:07 | 49.86614 | -2.09118 | 17399 ft | 332 kts | 44° |
| 2026-04-23 18:07 | 49.88116 | -2.06360 | 17831 ft | 335 kts | 44° |
| 2026-04-23 18:08 | 49.89129 | -2.04499 | 18113 ft | 337 kts | 44° |
| 2026-04-23 18:08 | 49.91140 | -2.00801 | 18650 ft | 342 kts | 44° |
| 2026-04-23 18:08 | 49.92696 | -1.97940 | 19043 ft | 345 kts | 44° |
| 2026-04-23 18:08 | 49.94261 | -1.95059 | 19213 ft | 356 kts | 44° |
| 2026-04-23 18:09 | 49.95866 | -1.92104 | 19260 ft | 369 kts | 44° |
| 2026-04-23 18:09 | 49.97559 | -1.88981 | 19273 ft | 382 kts | 45° |
| 2026-04-23 18:09 | 49.99325 | -1.85772 | 19273 ft | 391 kts | 42° |
| 2026-04-23 18:09 | 50.01435 | -1.83257 | 19295 ft | 382 kts | 21° |
| 2026-04-23 18:10 | 50.03812 | -1.81364 | 19270 ft | 388 kts | 19° |
| 2026-04-23 18:10 | 50.06232 | -1.79465 | 19271 ft | 394 kts | 19° |
| 2026-04-23 18:10 | 50.08714 | -1.77519 | 19279 ft | 397 kts | 19° |
| 2026-04-23 18:10 | 50.11166 | -1.75587 | 19287 ft | 400 kts | 19° |
| 2026-04-23 18:11 | 50.13559 | -1.73221 | 19295 ft | 411 kts | 31° |
| 2026-04-23 18:11 | 50.15782 | -1.70362 | 19289 ft | 412 kts | 33° |
| 2026-04-23 18:11 | 50.17960 | -1.67521 | 19298 ft | 411 kts | 33° |
| 2026-04-23 18:11 | 50.20156 | -1.64651 | 19306 ft | 410 kts | 33° |
| 2026-04-23 18:12 | 50.22217 | -1.61957 | 19310 ft | 409 kts | 33° |
| 2026-04-23 18:13 | 50.24425 | -1.59076 | 19309 ft | 409 kts | 33° |
| 2026-04-23 18:13 | 50.26611 | -1.56222 | 19306 ft | 409 kts | 33° |
| 2026-04-23 18:13 | 50.28822 | -1.53345 | 19305 ft | 408 kts | 33° |
| 2026-04-23 18:13 | 50.31005 | -1.50516 | 19305 ft | 408 kts | 33° |
| 2026-04-23 18:14 | 50.33196 | -1.47674 | 19307 ft | 408 kts | 33° |
| 2026-04-23 18:14 | 50.35371 | -1.44850 | 19308 ft | 408 kts | 33° |
| 2026-04-23 18:14 | 50.37585 | -1.41969 | 19311 ft | 408 kts | 33° |
| 2026-04-23 18:14 | 50.39749 | -1.39152 | 19317 ft | 408 kts | 33° |
| 2026-04-23 18:15 | 50.41937 | -1.36300 | 19324 ft | 408 kts | 33° |
| 2026-04-23 18:15 | 50.44124 | -1.33447 | 19326 ft | 407 kts | 34° |
| 2026-04-23 18:15 | 50.46307 | -1.30594 | 19333 ft | 407 kts | 34° |
| 2026-04-23 18:15 | 50.48449 | -1.27792 | 19338 ft | 407 kts | 34° |
| 2026-04-23 18:16 | 50.50642 | -1.24920 | 19341 ft | 407 kts | 34° |
| 2026-04-23 18:16 | 50.52795 | -1.22097 | 19342 ft | 407 kts | 34° |
| 2026-04-23 18:16 | 50.54979 | -1.19230 | 19236 ft | 410 kts | 34° |
| 2026-04-23 18:17 | 50.59352 | -1.13469 | 18287 ft | 398 kts | 34° |
| 2026-04-23 18:17 | 50.61414 | -1.10745 | 17796 ft | 382 kts | 34° |
| 2026-04-23 18:17 | 50.63418 | -1.08096 | 17328 ft | 368 kts | 34° |